Time;durP1;ratioP1;P1;durP2;ratioP2;P2;SDS_P1;SDS_P2;PMS_P1;PMS_P2;Temp;Humidity;BMP_temperature;BMP_pressure;BME280_temperature;BME280_humidity;BME280_pressure;Samples;Min_cycle;Max_cycle;Signal;HPM_P1;HPM_P2
2023/10/28 00:01:16;;;;;;;52.83;22.15;;;;;;;;;;5044904;28;20052;-61
2023/10/28 00:03:42;;;;;;;56.63;21.92;;;;;;;;;;5046220;28;20124;-61
2023/10/28 00:06:08;;;;;;;54.58;21.30;;;;;;;;;;5045544;28;20038;-61
2023/10/28 00:08:35;;;;;;;62.17;24.75;;;;;;;;;;5026760;28;20094;-62
2023/10/28 00:11:02;;;;;;;59.33;24.38;;;;;;;;;;5045066;28;20083;-61
2023/10/28 00:13:30;;;;;;;59.80;24.90;;;;;;;;;;5026862;28;20057;-62
2023/10/28 00:15:56;;;;;;;61.72;26.02;;;;;;;;;;5045728;28;20353;-61
2023/10/28 00:18:22;;;;;;;69.95;26.40;;;;;;;;;;5050956;28;20065;-61
2023/10/28 00:20:49;;;;;;;69.47;26.35;;;;;;;;;;5045217;28;20036;-61
2023/10/28 00:23:15;;;;;;;61.67;26.05;;;;;;;;;;5047106;28;20522;-61
2023/10/28 00:25:42;;;;;;;73.78;29.15;;;;;;;;;;5029099;28;20049;-61
2023/10/28 00:28:08;;;;;;;72.05;29.73;;;;;;;;;;5027223;28;20049;-62
2023/10/28 00:30:34;;;;;;;80.25;31.35;;;;;;;;;;5050911;28;20087;-61
2023/10/28 00:33:00;;;;;;;76.00;30.85;;;;;;;;;;5045256;28;20036;-61
2023/10/28 00:35:30;;;;;;;78.18;33.22;;;;;;;;;;5044630;28;20041;-62
2023/10/28 00:37:57;;;;;;;80.45;33.67;;;;;;;;;;5044111;28;20063;-61
2023/10/28 00:40:28;;;;;;;83.25;34.53;;;;;;;;;;5025290;28;20049;-61
2023/10/28 00:42:56;;;;;;;90.10;34.40;;;;;;;;;;5043116;28;20477;-61
2023/10/28 00:45:22;;;;;;;75.88;34.72;;;;;;;;;;5049935;28;20089;-61
2023/10/28 00:47:56;;;;;;;84.35;36.55;;;;;;;;;;5047324;28;20072;-61
2023/10/28 00:50:23;;;;;;;87.38;37.15;;;;;;;;;;5047054;28;20474;-61
2023/10/28 00:52:51;;;;;;;74.10;35.10;;;;;;;;;;5035387;28;20084;-62
2023/10/28 00:55:18;;;;;;;78.00;34.75;;;;;;;;;;5028373;28;20049;-61
2023/10/28 00:57:45;;;;;;;79.50;35.85;;;;;;;;;;5046711;28;20041;-61
2023/10/28 01:00:12;;;;;;;85.65;37.63;;;;;;;;;;5051481;28;20071;-61
2023/10/28 01:02:39;;;;;;;79.15;37.03;;;;;;;;;;5046809;28;20039;-61
2023/10/28 01:05:05;;;;;;;83.55;36.47;;;;;;;;;;5025428;28;20459;-62
2023/10/28 01:07:32;;;;;;;90.38;37.25;;;;;;;;;;5043319;28;20037;-61
2023/10/28 01:09:58;;;;;;;88.90;37.83;;;;;;;;;;5043737;28;20064;-61
2023/10/28 01:12:26;;;;;;;94.32;38.95;;;;;;;;;;5043425;28;20049;-61
2023/10/28 01:14:53;;;;;;;88.50;36.10;;;;;;;;;;5050564;28;20053;-61
2023/10/28 01:17:21;;;;;;;95.95;39.40;;;;;;;;;;5011495;28;20469;-61
2023/10/28 01:19:47;;;;;;;84.18;37.10;;;;;;;;;;5025194;28;20048;-61
2023/10/28 01:22:14;;;;;;;92.57;38.10;;;;;;;;;;5043989;28;20041;-61
2023/10/28 01:24:40;;;;;;;89.68;37.78;;;;;;;;;;5020762;28;20044;-61
2023/10/28 01:27:09;;;;;;;99.45;38.95;;;;;;;;;;5044094;28;20083;-61
2023/10/28 01:29:36;;;;;;;87.97;36.92;;;;;;;;;;5045156;28;20130;-61
2023/10/28 01:32:03;;;;;;;84.25;35.72;;;;;;;;;;5050805;28;20114;-61
2023/10/28 01:34:29;;;;;;;85.70;36.17;;;;;;;;;;5049440;28;20037;-62
2023/10/28 01:36:56;;;;;;;84.40;34.95;;;;;;;;;;5050621;28;20409;-61
2023/10/28 01:39:22;;;;;;;89.38;36.65;;;;;;;;;;5047672;28;20116;-61
2023/10/28 01:41:49;;;;;;;87.97;37.78;;;;;;;;;;5049219;28;20052;-61
2023/10/28 01:44:16;;;;;;;83.05;34.90;;;;;;;;;;5047864;28;20045;-61
2023/10/28 01:46:42;;;;;;;88.53;37.03;;;;;;;;;;5048303;28;20499;-61
2023/10/28 01:49:10;;;;;;;101.68;39.13;;;;;;;;;;5049219;28;20135;-61
2023/10/28 01:51:36;;;;;;;91.65;36.30;;;;;;;;;;5047202;28;20099;-61
2023/10/28 01:54:03;;;;;;;92.32;36.60;;;;;;;;;;5029753;28;20053;-61
2023/10/28 01:56:29;;;;;;;97.07;36.70;;;;;;;;;;5029891;28;20041;-61
2023/10/28 01:58:56;;;;;;;84.30;36.10;;;;;;;;;;5048473;28;20459;-61
2023/10/28 02:01:25;;;;;;;90.28;36.10;;;;;;;;;;5049496;28;20353;-61
2023/10/28 02:03:53;;;;;;;94.30;37.42;;;;;;;;;;5047184;28;20242;-61
2023/10/28 02:06:19;;;;;;;93.63;37.90;;;;;;;;;;5044411;28;20049;-62
2023/10/28 02:08:45;;;;;;;84.82;36.47;;;;;;;;;;5049024;28;20045;-61
2023/10/28 02:11:11;;;;;;;87.90;36.90;;;;;;;;;;5050200;28;20145;-61
2023/10/28 02:13:38;;;;;;;86.95;36.40;;;;;;;;;;5048995;28;20053;-61
2023/10/28 02:16:04;;;;;;;86.47;36.88;;;;;;;;;;5048599;28;20385;-62
2023/10/28 02:18:32;;;;;;;85.57;34.50;;;;;;;;;;5048773;28;20068;-61
2023/10/28 02:20:58;;;;;;;80.10;34.90;;;;;;;;;;5050068;28;20404;-61
2023/10/28 02:23:26;;;;;;;77.13;34.38;;;;;;;;;;5044147;28;20037;-61
2023/10/28 02:25:52;;;;;;;86.40;35.97;;;;;;;;;;5047435;28;20048;-61
2023/10/28 02:28:18;;;;;;;79.70;33.25;;;;;;;;;;5048338;28;20501;-62
2023/10/28 02:30:44;;;;;;;79.38;33.28;;;;;;;;;;5044229;28;20635;-61
2023/10/28 02:33:11;;;;;;;75.22;33.75;;;;;;;;;;5049768;28;20036;-61
2023/10/28 02:35:37;;;;;;;69.68;30.75;;;;;;;;;;5049561;28;20091;-61
2023/10/28 02:38:03;;;;;;;75.55;31.15;;;;;;;;;;5047411;28;20143;-61
2023/10/28 02:40:29;;;;;;;70.15;31.95;;;;;;;;;;5031133;28;20047;-61
2023/10/28 02:42:55;;;;;;;67.55;31.45;;;;;;;;;;5043872;28;20120;-61
2023/10/28 02:45:22;;;;;;;72.65;31.08;;;;;;;;;;5042828;28;20037;-61
2023/10/28 02:47:49;;;;;;;67.93;32.13;;;;;;;;;;5043618;28;20045;-61
2023/10/28 02:50:17;;;;;;;67.70;29.75;;;;;;;;;;5047470;28;20512;-61
2023/10/28 02:52:43;;;;;;;66.50;29.00;;;;;;;;;;5043570;28;20053;-61
2023/10/28 02:55:10;;;;;;;65.03;28.42;;;;;;;;;;5040057;28;20048;-61
2023/10/28 02:57:38;;;;;;;64.90;28.42;;;;;;;;;;5037438;28;20427;-61
2023/10/28 03:00:08;;;;;;;61.42;28.90;;;;;;;;;;5048566;28;20041;-62
2023/10/28 03:02:35;;;;;;;63.65;27.40;;;;;;;;;;5026408;28;20091;-61
2023/10/28 03:05:01;;;;;;;69.25;28.83;;;;;;;;;;5043116;28;20330;-61
2023/10/28 03:07:27;;;;;;;58.88;26.02;;;;;;;;;;5041882;28;20033;-62
2023/10/28 03:09:53;;;;;;;60.90;27.42;;;;;;;;;;5041431;28;20120;-61
2023/10/28 03:12:19;;;;;;;64.45;26.33;;;;;;;;;;5044047;28;20052;-61
2023/10/28 03:14:45;;;;;;;63.30;27.15;;;;;;;;;;5049895;28;20501;-61
2023/10/28 03:17:11;;;;;;;58.45;25.98;;;;;;;;;;5034007;28;20465;-61
2023/10/28 03:19:38;;;;;;;61.55;24.60;;;;;;;;;;5046712;28;20132;-61
2023/10/28 03:22:04;;;;;;;58.97;25.40;;;;;;;;;;5053937;28;20045;-61
2023/10/28 03:24:30;;;;;;;56.10;25.90;;;;;;;;;;5058165;28;20771;-61
2023/10/28 03:26:56;;;;;;;53.85;23.70;;;;;;;;;;5043374;28;20049;-61
2023/10/28 03:29:23;;;;;;;57.28;23.73;;;;;;;;;;5046922;28;20119;-61
2023/10/28 03:31:49;;;;;;;54.83;24.65;;;;;;;;;;5046193;28;20056;-61
2023/10/28 03:34:15;;;;;;;53.75;23.27;;;;;;;;;;5045220;28;20484;-61
2023/10/28 03:36:41;;;;;;;54.92;22.38;;;;;;;;;;5048971;28;20120;-61
2023/10/28 03:39:08;;;;;;;51.42;22.25;;;;;;;;;;5054528;28;20044;-61
2023/10/28 03:41:34;;;;;;;57.33;22.40;;;;;;;;;;5062945;28;20048;-61
2023/10/28 03:44:01;;;;;;;48.08;21.60;;;;;;;;;;5054723;28;20140;-61
2023/10/28 03:46:27;;;;;;;54.70;23.52;;;;;;;;;;5060907;28;20044;-61
2023/10/28 03:48:53;;;;;;;56.50;23.10;;;;;;;;;;5046070;28;20484;-61
2023/10/28 03:51:20;;;;;;;53.05;22.70;;;;;;;;;;5046368;28;20045;-61
2023/10/28 03:53:46;;;;;;;60.47;22.02;;;;;;;;;;5046119;28;20476;-61
2023/10/28 03:56:12;;;;;;;53.20;22.52;;;;;;;;;;5046675;28;20522;-61
2023/10/28 03:58:39;;;;;;;46.25;22.20;;;;;;;;;;5046602;28;20044;-62
2023/10/28 04:01:05;;;;;;;49.47;20.63;;;;;;;;;;5051590;28;20100;-62
2023/10/28 04:03:31;;;;;;;45.53;20.08;;;;;;;;;;5057993;28;20086;-61
2023/10/28 04:05:57;;;;;;;45.50;22.48;;;;;;;;;;5064799;28;20037;-62
2023/10/28 04:08:24;;;;;;;50.17;20.38;;;;;;;;;;5044065;28;20044;-61
2023/10/28 04:10:50;;;;;;;52.67;23.55;;;;;;;;;;5045293;28;20048;-61
2023/10/28 04:13:16;;;;;;;55.38;22.15;;;;;;;;;;5048476;28;20493;-61
2023/10/28 04:15:42;;;;;;;48.38;21.20;;;;;;;;;;5051959;28;20504;-61
2023/10/28 04:18:08;;;;;;;52.25;24.33;;;;;;;;;;5045764;28;20566;-61
2023/10/28 04:20:37;;;;;;;50.60;23.50;;;;;;;;;;5046038;28;20456;-61
2023/10/28 04:23:04;;;;;;;58.70;22.08;;;;;;;;;;5045057;28;20044;-61
2023/10/28 04:25:30;;;;;;;46.10;21.83;;;;;;;;;;5046322;28;20496;-62
2023/10/28 04:27:56;;;;;;;45.90;21.90;;;;;;;;;;5052246;28;21667;-62
2023/10/28 04:30:23;;;;;;;54.88;23.00;;;;;;;;;;5048425;28;20048;-61
2023/10/28 04:32:49;;;;;;;56.03;20.17;;;;;;;;;;5044455;28;20492;-61
2023/10/28 04:35:15;;;;;;;57.17;22.85;;;;;;;;;;5055544;28;20550;-61
2023/10/28 04:37:42;;;;;;;53.55;20.65;;;;;;;;;;5045328;28;20076;-61
2023/10/28 04:40:08;;;;;;;47.63;21.35;;;;;;;;;;5030244;28;20037;-61
2023/10/28 04:42:34;;;;;;;58.95;21.95;;;;;;;;;;5050138;28;20128;-61
2023/10/28 04:45:04;;;;;;;60.10;22.65;;;;;;;;;;5062534;28;20033;-61
2023/10/28 04:47:30;;;;;;;55.05;22.27;;;;;;;;;;5050295;28;20413;-61
2023/10/28 04:49:57;;;;;;;65.60;24.73;;;;;;;;;;5046297;28;20079;-61
2023/10/28 04:52:24;;;;;;;61.55;23.48;;;;;;;;;;5043353;28;20097;-61
2023/10/28 04:54:50;;;;;;;64.70;21.77;;;;;;;;;;5046640;28;20114;-61
2023/10/28 04:57:16;;;;;;;55.45;21.85;;;;;;;;;;5042635;28;21974;-61
2023/10/28 04:59:42;;;;;;;57.85;22.63;;;;;;;;;;5057662;28;20109;-62
2023/10/28 05:02:08;;;;;;;52.65;22.30;;;;;;;;;;5052336;28;20068;-61
2023/10/28 05:04:35;;;;;;;62.55;23.45;;;;;;;;;;5067949;28;20052;-61
2023/10/28 05:07:01;;;;;;;55.55;24.20;;;;;;;;;;5047483;28;20045;-61
2023/10/28 05:09:28;;;;;;;62.50;23.08;;;;;;;;;;5044495;28;20033;-61
2023/10/28 05:11:55;;;;;;;63.35;25.42;;;;;;;;;;5042899;28;20506;-61
2023/10/28 05:14:23;;;;;;;64.25;23.88;;;;;;;;;;5058410;28;20393;-61
2023/10/28 05:16:49;;;;;;;58.75;24.70;;;;;;;;;;5068719;28;20056;-61
2023/10/28 05:19:18;;;;;;;66.93;23.27;;;;;;;;;;5059908;28;20045;-62
2023/10/28 05:21:44;;;;;;;67.70;25.42;;;;;;;;;;5052113;28;20045;-61
2023/10/28 05:24:11;;;;;;;73.25;26.85;;;;;;;;;;5048191;28;20033;-61
2023/10/28 05:26:37;;;;;;;70.43;26.95;;;;;;;;;;5046549;28;20493;-61
2023/10/28 05:29:04;;;;;;;73.95;26.30;;;;;;;;;;5050998;28;20109;-62
2023/10/28 05:31:30;;;;;;;72.55;27.42;;;;;;;;;;5051057;28;20078;-61
2023/10/28 05:33:56;;;;;;;73.38;26.77;;;;;;;;;;5049580;28;20048;-61
2023/10/28 05:36:23;;;;;;;79.40;28.02;;;;;;;;;;5051128;28;20040;-61
2023/10/28 05:38:49;;;;;;;77.28;27.42;;;;;;;;;;5051597;28;20451;-61
2023/10/28 05:41:15;;;;;;;77.45;28.67;;;;;;;;;;5049569;28;20048;-61
2023/10/28 05:43:41;;;;;;;62.78;26.30;;;;;;;;;;5043466;28;20511;-61
2023/10/28 05:46:07;;;;;;;68.85;25.27;;;;;;;;;;5050083;28;20052;-61
2023/10/28 05:48:33;;;;;;;65.38;26.15;;;;;;;;;;5051751;28;20384;-61
2023/10/28 05:51:02;;;;;;;74.50;27.45;;;;;;;;;;5049796;28;20428;-62
2023/10/28 05:53:29;;;;;;;78.25;29.40;;;;;;;;;;5050219;28;20059;-62
2023/10/28 05:55:56;;;;;;;73.65;27.73;;;;;;;;;;5049887;28;20389;-61
2023/10/28 05:58:22;;;;;;;86.30;29.73;;;;;;;;;;5045458;28;20107;-62
2023/10/28 06:00:49;;;;;;;92.97;30.65;;;;;;;;;;5050012;28;20494;-62
2023/10/28 06:03:15;;;;;;;83.28;31.17;;;;;;;;;;5047563;28;20072;-62
2023/10/28 06:05:41;;;;;;;86.88;31.83;;;;;;;;;;5051124;28;20053;-61
2023/10/28 06:08:08;;;;;;;102.97;35.40;;;;;;;;;;5048913;28;20524;-61
2023/10/28 06:10:37;;;;;;;103.07;32.53;;;;;;;;;;5055602;28;20049;-61
2023/10/28 06:13:03;;;;;;;103.28;33.20;;;;;;;;;;5070928;28;20045;-61
2023/10/28 06:15:30;;;;;;;115.80;33.80;;;;;;;;;;5070771;28;20123;-61
2023/10/28 06:17:57;;;;;;;95.82;33.25;;;;;;;;;;5063010;28;20136;-61
2023/10/28 06:20:23;;;;;;;99.13;31.58;;;;;;;;;;5065077;28;20101;-62
2023/10/28 06:22:49;;;;;;;113.07;33.83;;;;;;;;;;5048792;28;20519;-61
2023/10/28 06:25:15;;;;;;;111.55;34.92;;;;;;;;;;5051596;28;20163;-61
2023/10/28 06:27:42;;;;;;;114.40;35.88;;;;;;;;;;5056238;28;20044;-61
2023/10/28 06:30:11;;;;;;;114.70;35.97;;;;;;;;;;5040865;28;20106;-61
2023/10/28 06:32:38;;;;;;;106.90;35.17;;;;;;;;;;5070813;28;20067;-61
2023/10/28 06:35:05;;;;;;;106.47;35.17;;;;;;;;;;5043990;28;20049;-61
2023/10/28 06:37:32;;;;;;;115.47;36.95;;;;;;;;;;5065515;28;20101;-61
2023/10/28 06:39:58;;;;;;;91.25;32.55;;;;;;;;;;5054541;28;20041;-61
2023/10/28 06:42:25;;;;;;;99.15;36.78;;;;;;;;;;5067718;28;20505;-61
2023/10/28 06:44:51;;;;;;;100.53;36.83;;;;;;;;;;5063770;28;20048;-61
2023/10/28 06:47:18;;;;;;;104.00;35.42;;;;;;;;;;5070114;28;20052;-61
2023/10/28 06:49:44;;;;;;;91.50;34.97;;;;;;;;;;5052134;28;20404;-61
2023/10/28 06:52:10;;;;;;;97.22;36.13;;;;;;;;;;5049928;28;20056;-61
2023/10/28 06:54:37;;;;;;;85.72;32.33;;;;;;;;;;5056109;28;20089;-61
2023/10/28 06:57:04;;;;;;;88.63;33.13;;;;;;;;;;5070126;28;20154;-61
2023/10/28 06:59:30;;;;;;;82.45;32.78;;;;;;;;;;5068370;28;20491;-61
2023/10/28 07:01:56;;;;;;;91.50;33.17;;;;;;;;;;5060833;28;20041;-61
2023/10/28 07:04:22;;;;;;;92.50;32.47;;;;;;;;;;5065269;28;20046;-61
2023/10/28 07:06:49;;;;;;;74.88;31.67;;;;;;;;;;5054515;28;20512;-61
2023/10/28 07:09:17;;;;;;;75.85;30.85;;;;;;;;;;5060946;28;20044;-61
2023/10/28 07:11:44;;;;;;;74.47;30.55;;;;;;;;;;5064034;28;20407;-61
2023/10/28 07:14:10;;;;;;;61.75;27.23;;;;;;;;;;5064506;28;20045;-61
2023/10/28 07:16:36;;;;;;;72.13;27.23;;;;;;;;;;5047522;28;20047;-61
2023/10/28 07:19:02;;;;;;;64.65;27.20;;;;;;;;;;5069979;28;20049;-61
2023/10/28 07:21:28;;;;;;;63.42;26.90;;;;;;;;;;5063120;28;20131;-61
2023/10/28 07:23:55;;;;;;;52.08;25.48;;;;;;;;;;5036383;28;20499;-61
2023/10/28 07:26:22;;;;;;;54.75;24.88;;;;;;;;;;5061397;28;20045;-61
2023/10/28 07:28:49;;;;;;;57.47;25.52;;;;;;;;;;5070065;28;20362;-61
2023/10/28 07:31:16;;;;;;;52.08;24.27;;;;;;;;;;5056214;28;20409;-61
2023/10/28 07:33:42;;;;;;;51.92;23.45;;;;;;;;;;5049746;28;20040;-61
2023/10/28 07:36:09;;;;;;;53.72;24.23;;;;;;;;;;5070324;28;20048;-61
2023/10/28 07:38:36;;;;;;;46.45;23.88;;;;;;;;;;5069532;28;20049;-61
2023/10/28 07:41:02;;;;;;;46.63;22.30;;;;;;;;;;5065171;28;20081;-61
2023/10/28 07:43:28;;;;;;;40.78;21.55;;;;;;;;;;5062349;28;20094;-61
2023/10/28 07:45:55;;;;;;;39.67;20.70;;;;;;;;;;5064745;28;20391;-61
2023/10/28 07:48:21;;;;;;;46.97;21.75;;;;;;;;;;5070407;28;20124;-61
2023/10/28 07:50:48;;;;;;;43.88;21.65;;;;;;;;;;5069786;28;20036;-61
2023/10/28 07:53:16;;;;;;;38.13;19.52;;;;;;;;;;5069333;28;20392;-61
2023/10/28 07:55:43;;;;;;;37.72;18.48;;;;;;;;;;5070202;28;20040;-61
2023/10/28 07:58:09;;;;;;;33.08;17.92;;;;;;;;;;5066595;28;20080;-61
2023/10/28 08:00:38;;;;;;;33.40;17.40;;;;;;;;;;5054968;28;20068;-61
2023/10/28 08:03:04;;;;;;;28.40;15.25;;;;;;;;;;5067266;28;20037;-61
2023/10/28 08:05:31;;;;;;;26.30;15.10;;;;;;;;;;5073578;28;20369;-61
2023/10/28 08:07:57;;;;;;;30.70;15.80;;;;;;;;;;5058410;28;20052;-61
2023/10/28 08:10:23;;;;;;;33.33;17.23;;;;;;;;;;5073461;28;20040;-61
2023/10/28 08:12:51;;;;;;;23.63;14.30;;;;;;;;;;5068156;28;20508;-61
2023/10/28 08:15:19;;;;;;;29.13;14.27;;;;;;;;;;5061828;28;20036;-61
2023/10/28 08:17:45;;;;;;;24.38;12.88;;;;;;;;;;5073372;28;20055;-61
2023/10/28 08:20:14;;;;;;;22.30;13.48;;;;;;;;;;5068783;28;20044;-61
2023/10/28 08:22:40;;;;;;;24.27;12.32;;;;;;;;;;5052666;28;20041;-61
2023/10/28 08:25:08;;;;;;;20.92;11.80;;;;;;;;;;5068113;28;20048;-61
2023/10/28 08:27:34;;;;;;;24.85;11.15;;;;;;;;;;5059090;28;20140;-61
2023/10/28 08:30:01;;;;;;;21.33;10.50;;;;;;;;;;5066512;28;20136;-61
2023/10/28 08:32:30;;;;;;;17.20;9.80;;;;;;;;;;5069623;28;20040;-61
2023/10/28 08:34:57;;;;;;;17.08;9.13;;;;;;;;;;5064716;28;20045;-61
2023/10/28 08:37:23;;;;;;;19.15;9.00;;;;;;;;;;5070887;28;20072;-61
2023/10/28 08:39:49;;;;;;;20.00;8.90;;;;;;;;;;5072966;28;20096;-61
2023/10/28 08:42:17;;;;;;;16.13;9.25;;;;;;;;;;5052653;28;20129;-61
2023/10/28 08:44:43;;;;;;;18.50;8.95;;;;;;;;;;5067285;28;20092;-61
2023/10/28 08:47:09;;;;;;;23.52;8.85;;;;;;;;;;5067237;28;20052;-61
2023/10/28 08:49:40;;;;;;;20.85;9.55;;;;;;;;;;5072697;28;20468;-61
2023/10/28 08:52:09;;;;;;;19.35;9.02;;;;;;;;;;5057386;28;20045;-61
2023/10/28 08:54:38;;;;;;;16.83;8.82;;;;;;;;;;5058290;28;20111;-61
2023/10/28 08:57:05;;;;;;;17.23;9.23;;;;;;;;;;5047757;28;20049;-61
2023/10/28 08:59:31;;;;;;;19.58;10.07;;;;;;;;;;5070831;28;20119;-61
2023/10/28 09:01:58;;;;;;;18.02;9.85;;;;;;;;;;5064374;28;20045;-61
2023/10/28 09:04:24;;;;;;;19.85;10.40;;;;;;;;;;5068792;28;20048;-61
2023/10/28 09:06:54;;;;;;;22.92;10.23;;;;;;;;;;5067646;28;20044;-61
2023/10/28 09:09:25;;;;;;;16.98;9.77;;;;;;;;;;5043588;28;20049;-61
2023/10/28 09:11:57;;;;;;;21.75;9.73;;;;;;;;;;5067841;28;20044;-61
2023/10/28 09:14:23;;;;;;;17.65;10.18;;;;;;;;;;5062067;28;20490;-61
2023/10/28 09:16:50;;;;;;;15.57;9.35;;;;;;;;;;5068910;28;20048;-61
2023/10/28 09:19:20;;;;;;;16.05;8.77;;;;;;;;;;5068419;28;20059;-61
2023/10/28 09:21:49;;;;;;;18.38;9.23;;;;;;;;;;5067732;28;20113;-61
2023/10/28 09:24:16;;;;;;;18.95;10.15;;;;;;;;;;5053798;28;20044;-61
2023/10/28 09:26:42;;;;;;;20.20;9.57;;;;;;;;;;5066321;28;20044;-61
2023/10/28 09:29:08;;;;;;;16.70;9.90;;;;;;;;;;5049822;28;20052;-61
2023/10/28 09:31:35;;;;;;;18.63;9.65;;;;;;;;;;5068327;28;20049;-61
2023/10/28 09:34:01;;;;;;;20.33;9.85;;;;;;;;;;5067241;28;20412;-61
2023/10/28 09:36:29;;;;;;;16.83;9.35;;;;;;;;;;5055173;28;20408;-61
2023/10/28 09:38:56;;;;;;;14.88;9.57;;;;;;;;;;5062890;28;20044;-61
2023/10/28 09:41:22;;;;;;;14.77;9.90;;;;;;;;;;5071699;28;20048;-61
2023/10/28 09:43:48;;;;;;;17.67;9.80;;;;;;;;;;5071875;28;20036;-61
2023/10/28 09:46:19;;;;;;;17.00;9.07;;;;;;;;;;5071524;28;20051;-61
2023/10/28 09:48:48;;;;;;;15.73;8.52;;;;;;;;;;5062710;28;20041;-61
2023/10/28 09:51:22;;;;;;;16.55;8.90;;;;;;;;;;5071652;28;20073;-61
2023/10/28 09:54:00;;;;;;;15.60;9.57;;;;;;;;;;5071175;28;20052;-61
2023/10/28 09:56:28;;;;;;;17.95;9.00;;;;;;;;;;5071682;28;20033;-61
2023/10/28 09:58:57;;;;;;;17.60;8.80;;;;;;;;;;5065544;28;20048;-61
2023/10/28 10:01:26;;;;;;;19.25;8.60;;;;;;;;;;5071048;28;20443;-61
2023/10/28 10:03:58;;;;;;;17.15;8.60;;;;;;;;;;5057341;28;20057;-61
2023/10/28 10:06:25;;;;;;;17.85;7.90;;;;;;;;;;5068819;28;20040;-61
2023/10/28 10:08:55;;;;;;;15.85;8.43;;;;;;;;;;5057980;28;20127;-61
2023/10/28 10:11:25;;;;;;;17.40;8.60;;;;;;;;;;5071224;28;20045;-61
2023/10/28 10:13:51;;;;;;;20.15;8.43;;;;;;;;;;5043720;28;20045;-61
2023/10/28 10:16:36;;;;;;;14.80;8.30;;;;;;;;;;5071265;28;20118;-61
2023/10/28 10:19:05;;;;;;;16.00;8.85;;;;;;;;;;5058034;28;20437;-61
2023/10/28 10:21:34;;;;;;;17.98;8.68;;;;;;;;;;5063026;28;20185;-61
2023/10/28 10:24:04;;;;;;;15.63;8.90;;;;;;;;;;5040591;28;20166;-61
2023/10/28 10:26:34;;;;;;;16.42;8.95;;;;;;;;;;5060372;28;20515;-61
2023/10/28 10:29:03;;;;;;;15.80;8.80;;;;;;;;;;5059483;28;20132;-61
2023/10/28 10:31:31;;;;;;;13.55;8.85;;;;;;;;;;5059889;28;20072;-61
2023/10/28 10:34:09;;;;;;;14.50;8.55;;;;;;;;;;5036726;28;20044;-61
2023/10/28 10:36:40;;;;;;;14.95;8.38;;;;;;;;;;5070650;28;20189;-61
2023/10/28 10:39:17;;;;;;;18.20;8.55;;;;;;;;;;5070734;28;20507;-61
2023/10/28 10:41:44;;;;;;;18.23;8.98;;;;;;;;;;5059842;28;20114;-61
2023/10/28 10:44:29;;;;;;;11.45;7.57;;;;;;;;;;5068666;28;20149;-61
2023/10/28 10:46:58;;;;;;;17.48;7.50;;;;;;;;;;5067755;28;20175;-61
2023/10/28 10:49:25;;;;;;;12.48;6.97;;;;;;;;;;5070035;28;20437;-61
2023/10/28 10:51:52;;;;;;;15.85;7.50;;;;;;;;;;5063266;28;20049;-61
2023/10/28 10:54:18;;;;;;;16.73;7.72;;;;;;;;;;5060143;28;20048;-61
2023/10/28 10:56:50;;;;;;;16.65;7.20;;;;;;;;;;5056502;28;20124;-61
2023/10/28 10:59:16;;;;;;;16.98;8.05;;;;;;;;;;5059657;28;20052;-61
2023/10/28 11:01:42;;;;;;;17.30;8.32;;;;;;;;;;5058904;28;20550;-61
2023/10/28 11:04:09;;;;;;;17.33;7.45;;;;;;;;;;5067477;28;20041;-61
2023/10/28 11:06:35;;;;;;;14.18;7.20;;;;;;;;;;5067841;28;20037;-61
2023/10/28 11:09:03;;;;;;;20.95;8.27;;;;;;;;;;5041148;28;20052;-61
2023/10/28 11:11:29;;;;;;;14.57;6.85;;;;;;;;;;5070212;28;20048;-61
2023/10/28 11:13:56;;;;;;;14.25;7.22;;;;;;;;;;5050483;28;20052;-61
2023/10/28 11:16:24;;;;;;;16.95;6.53;;;;;;;;;;5063688;28;20041;-61
2023/10/28 11:18:50;;;;;;;11.82;5.97;;;;;;;;;;5058329;28;20053;-61
2023/10/28 11:21:17;;;;;;;16.08;6.65;;;;;;;;;;5070379;28;20039;-61
2023/10/28 11:23:43;;;;;;;21.88;7.00;;;;;;;;;;5065083;28;20111;-61
2023/10/28 11:26:09;;;;;;;17.25;7.60;;;;;;;;;;5044646;28;20042;-61
2023/10/28 11:28:38;;;;;;;16.23;6.40;;;;;;;;;;5055467;28;20382;-61
2023/10/28 11:31:05;;;;;;;16.38;7.43;;;;;;;;;;5070058;28;20423;-61
2023/10/28 11:33:33;;;;;;;18.75;7.80;;;;;;;;;;5073789;28;20072;-61
2023/10/28 11:36:01;;;;;;;16.98;7.47;;;;;;;;;;5074077;28;20045;-61
2023/10/28 11:38:31;;;;;;;14.98;7.05;;;;;;;;;;5061927;28;20166;-61
2023/10/28 11:41:05;;;;;;;13.93;6.85;;;;;;;;;;5059623;28;20060;-61
2023/10/28 11:43:31;;;;;;;20.63;7.65;;;;;;;;;;5074468;28;20086;-61
2023/10/28 11:45:57;;;;;;;13.63;7.15;;;;;;;;;;5073645;28;20036;-61
2023/10/28 11:48:23;;;;;;;14.95;7.28;;;;;;;;;;5073936;28;20407;-61
2023/10/28 11:50:51;;;;;;;18.98;7.90;;;;;;;;;;5070510;28;20080;-61
2023/10/28 11:53:24;;;;;;;16.83;7.32;;;;;;;;;;5049151;28;20124;-61
2023/10/28 11:55:50;;;;;;;14.00;7.27;;;;;;;;;;5062542;28;20057;-61
2023/10/28 11:58:17;;;;;;;16.77;6.50;;;;;;;;;;5073118;28;20508;-61
2023/10/28 12:00:52;;;;;;;16.75;7.25;;;;;;;;;;5052963;28;20048;-61
2023/10/28 12:03:19;;;;;;;13.10;5.43;;;;;;;;;;5053699;28;20049;-61
2023/10/28 12:05:45;;;;;;;13.32;6.22;;;;;;;;;;5067081;28;20120;-61
2023/10/28 12:08:12;;;;;;;13.68;5.93;;;;;;;;;;5059444;28;20045;-61
2023/10/28 12:10:44;;;;;;;15.68;7.18;;;;;;;;;;5073608;28;20037;-61
2023/10/28 12:13:11;;;;;;;16.48;6.55;;;;;;;;;;5072872;28;20206;-61
2023/10/28 12:15:38;;;;;;;13.98;6.20;;;;;;;;;;5065585;28;20056;-61
2023/10/28 12:18:05;;;;;;;16.13;6.68;;;;;;;;;;5063879;28;20048;-61
2023/10/28 12:20:31;;;;;;;12.70;6.20;;;;;;;;;;5072110;28;20082;-61
2023/10/28 12:22:57;;;;;;;18.98;7.18;;;;;;;;;;5073233;28;20433;-61
2023/10/28 12:25:24;;;;;;;17.13;7.63;;;;;;;;;;5064027;28;20078;-61
2023/10/28 12:27:50;;;;;;;16.48;6.38;;;;;;;;;;5053824;28;20045;-61
2023/10/28 12:30:17;;;;;;;13.80;6.47;;;;;;;;;;5053834;28;20059;-61
2023/10/28 12:32:43;;;;;;;13.98;5.90;;;;;;;;;;5073109;28;20045;-61
2023/10/28 12:35:09;;;;;;;14.43;6.35;;;;;;;;;;5072662;28;20051;-61
2023/10/28 12:37:36;;;;;;;19.48;6.50;;;;;;;;;;5072841;28;20033;-61
2023/10/28 12:40:02;;;;;;;15.95;6.55;;;;;;;;;;5062021;28;20529;-61
2023/10/28 12:42:28;;;;;;;16.67;7.00;;;;;;;;;;5058928;28;20036;-61
2023/10/28 12:44:54;;;;;;;16.48;7.28;;;;;;;;;;5071537;28;20119;-61
2023/10/28 12:47:21;;;;;;;14.77;6.93;;;;;;;;;;5072903;28;20116;-61
2023/10/28 12:49:47;;;;;;;20.20;6.93;;;;;;;;;;5072483;28;20120;-61
2023/10/28 12:52:13;;;;;;;14.50;6.63;;;;;;;;;;5072567;28;20084;-61
2023/10/28 12:54:39;;;;;;;17.05;6.82;;;;;;;;;;5067049;28;20041;-61
2023/10/28 12:57:07;;;;;;;16.58;7.53;;;;;;;;;;5057490;28;20082;-61
2023/10/28 12:59:34;;;;;;;18.38;8.27;;;;;;;;;;5072558;28;20113;-61
2023/10/28 13:02:00;;;;;;;16.40;6.97;;;;;;;;;;5072483;28;20033;-61
2023/10/28 13:04:26;;;;;;;13.57;5.93;;;;;;;;;;5059554;28;20041;-61
2023/10/28 13:06:52;;;;;;;13.57;6.60;;;;;;;;;;5067474;28;20117;-61
2023/10/28 13:09:20;;;;;;;15.77;6.57;;;;;;;;;;5062760;28;20361;-61
2023/10/28 13:11:47;;;;;;;14.00;6.07;;;;;;;;;;5069460;28;20045;-61
2023/10/28 13:14:16;;;;;;;11.48;5.78;;;;;;;;;;5072278;28;20047;-61
2023/10/28 13:16:42;;;;;;;13.40;5.57;;;;;;;;;;5071928;28;20182;-61
2023/10/28 13:19:08;;;;;;;12.05;5.50;;;;;;;;;;5064929;28;20040;-61
2023/10/28 13:21:35;;;;;;;13.40;6.00;;;;;;;;;;5072549;28;20515;-61
2023/10/28 13:24:01;;;;;;;12.45;5.25;;;;;;;;;;5071794;28;20044;-61
2023/10/28 13:26:27;;;;;;;16.10;5.22;;;;;;;;;;5062265;28;20554;-61
2023/10/28 13:28:54;;;;;;;10.48;5.55;;;;;;;;;;5068959;28;20488;-61
2023/10/28 13:31:20;;;;;;;11.75;5.00;;;;;;;;;;5053823;28;20042;-61
2023/10/28 13:33:47;;;;;;;12.20;4.70;;;;;;;;;;5054018;28;20472;-61
2023/10/28 13:36:13;;;;;;;8.30;4.63;;;;;;;;;;5072066;28;20156;-61
2023/10/28 13:38:39;;;;;;;11.93;4.40;;;;;;;;;;5060010;28;20393;-61
2023/10/28 13:41:05;;;;;;;11.65;4.05;;;;;;;;;;5060206;28;20036;-61
2023/10/28 13:43:32;;;;;;;12.65;5.03;;;;;;;;;;5072184;28;20036;-61
2023/10/28 13:46:00;;;;;;;12.90;4.80;;;;;;;;;;5071194;28;20051;-61
2023/10/28 13:48:26;;;;;;;16.23;4.88;;;;;;;;;;5072028;28;20056;-61
2023/10/28 13:50:52;;;;;;;12.73;4.40;;;;;;;;;;5067372;28;20104;-61
2023/10/28 13:53:19;;;;;;;11.25;4.72;;;;;;;;;;5049583;28;20045;-61
2023/10/28 13:55:46;;;;;;;8.88;3.95;;;;;;;;;;5052950;28;20044;-61
2023/10/28 13:58:12;;;;;;;15.35;4.97;;;;;;;;;;5061454;28;20097;-61
2023/10/28 14:00:38;;;;;;;9.75;3.50;;;;;;;;;;5071858;28;20103;-61
2023/10/28 14:03:04;;;;;;;16.23;4.32;;;;;;;;;;5071136;28;20134;-61
2023/10/28 14:05:32;;;;;;;10.57;4.75;;;;;;;;;;5070968;28;20047;-61
2023/10/28 14:07:59;;;;;;;13.23;4.00;;;;;;;;;;5052829;28;20051;-61
2023/10/28 14:10:25;;;;;;;13.45;4.20;;;;;;;;;;5041362;28;20037;-61
2023/10/28 14:12:51;;;;;;;12.60;5.40;;;;;;;;;;5049547;28;20064;-61
2023/10/28 14:15:18;;;;;;;12.43;4.15;;;;;;;;;;5055852;28;20064;-61
2023/10/28 14:17:45;;;;;;;11.32;4.38;;;;;;;;;;5069544;28;20083;-61
2023/10/28 14:20:11;;;;;;;12.55;4.82;;;;;;;;;;5070569;28;20045;-61